createdAt,value
2023-02-19T00:01:04.356Z,7.73
2023-02-19T00:04:21.983Z,7.71
2023-02-19T00:07:34.244Z,7.68
2023-02-19T00:10:46.145Z,7.63
2023-02-19T00:14:01.617Z,7.53
2023-02-19T00:17:13.904Z,7.50
2023-02-19T00:20:26.165Z,7.48
2023-02-19T00:23:38.922Z,7.47
2023-02-19T00:26:52.404Z,7.46
2023-02-19T00:30:04.487Z,7.47
2023-02-19T00:33:16.495Z,7.47
2023-02-19T00:36:29.579Z,7.47
2023-02-19T00:39:42.086Z,7.48
2023-02-19T00:42:54.075Z,7.44
2023-02-19T00:46:06.174Z,7.44
2023-02-19T00:49:23.539Z,7.42
2023-02-19T00:52:35.695Z,7.38
2023-02-19T00:55:47.852Z,7.38
2023-02-19T00:59:00.190Z,7.33
2023-02-19T01:02:12.303Z,7.31
2023-02-19T01:05:24.384Z,7.28
2023-02-19T01:08:37.602Z,7.28
2023-02-19T01:11:50.264Z,7.26
2023-02-19T01:15:02.765Z,7.27
2023-02-19T01:18:15.410Z,7.25
2023-02-19T01:21:30.491Z,7.23
2023-02-19T01:24:42.702Z,7.22
2023-02-19T01:27:54.655Z,7.22
2023-02-19T01:31:11.617Z,7.20
2023-02-19T01:34:23.934Z,7.22
2023-02-19T01:37:36.222Z,7.20
2023-02-19T01:40:48.278Z,7.19
2023-02-19T01:44:09.488Z,7.21
2023-02-19T01:47:24.102Z,7.16
2023-02-19T01:50:40.162Z,7.17
2023-02-19T01:53:56.920Z,7.17
2023-02-19T01:57:12.429Z,7.14
2023-02-19T02:00:25.981Z,7.07
2023-02-19T02:03:40.687Z,7.03
2023-02-19T02:06:56.970Z,6.99
2023-02-19T02:10:24.488Z,6.95
2023-02-19T02:13:38.840Z,6.91
2023-02-19T02:17:01.628Z,6.95
2023-02-19T02:20:30.645Z,6.94
2023-02-19T02:23:59.856Z,6.85
2023-02-19T02:27:45.555Z,6.98
2023-02-19T02:31:01.522Z,7.05
2023-02-19T02:34:19.172Z,7.05
2023-02-19T02:37:34.558Z,7.04
2023-02-19T02:40:49.262Z,7.06
2023-02-19T02:44:01.547Z,7.01
2023-02-19T02:47:17.841Z,6.98
2023-02-19T02:50:33.832Z,6.98
2023-02-19T02:54:05.593Z,6.95
2023-02-19T02:57:20.097Z,6.94
2023-02-19T03:00:42.102Z,6.96
2023-02-19T03:03:59.166Z,6.92
2023-02-19T03:07:15.562Z,6.95
2023-02-19T03:10:32.956Z,6.97
2023-02-19T03:14:00.821Z,7.00
2023-02-19T03:17:35.142Z,7.00
2023-02-19T03:20:52.676Z,6.98
2023-02-19T03:24:20.424Z,6.96
2023-02-19T03:27:36.300Z,6.93
2023-02-19T03:30:52.584Z,6.92
2023-02-19T03:34:09.969Z,6.91
2023-02-19T03:37:26.475Z,6.87
2023-02-19T03:40:42.723Z,6.85
2023-02-19T03:44:01.709Z,6.86
2023-02-19T03:47:20.379Z,6.87
2023-02-19T03:50:38.644Z,6.86
2023-02-19T03:54:03.452Z,6.90
2023-02-19T03:57:21.031Z,6.86
2023-02-19T04:00:39.794Z,6.80
2023-02-19T04:03:56.942Z,6.82
2023-02-19T04:07:09.680Z,6.83
2023-02-19T04:10:23.956Z,6.82
2023-02-19T04:13:40.835Z,6.83
2023-02-19T04:16:57.720Z,6.84
2023-02-19T04:20:13.680Z,6.83
2023-02-19T04:23:30.253Z,6.83
2023-02-19T04:26:43.847Z,6.83
2023-02-19T04:29:55.819Z,6.80
2023-02-19T04:33:07.964Z,6.77
2023-02-19T04:36:19.930Z,6.76
2023-02-19T04:39:31.898Z,6.72
2023-02-19T04:42:43.929Z,6.70
2023-02-19T04:45:55.994Z,6.70
2023-02-19T04:49:08.058Z,6.70
2023-02-19T04:52:20.136Z,6.75
2023-02-19T04:55:32.016Z,6.73
2023-02-19T04:58:44.645Z,6.73
2023-02-19T05:01:57.493Z,6.74
2023-02-19T05:05:09.859Z,6.75
2023-02-19T05:08:21.934Z,6.74
2023-02-19T05:11:33.980Z,6.72
2023-02-19T05:14:45.901Z,6.68
2023-02-19T05:17:57.866Z,6.70
2023-02-19T05:21:10.886Z,6.68
2023-02-19T05:24:24.448Z,6.73
2023-02-19T05:27:38.401Z,6.70
2023-02-19T05:30:51.154Z,6.65
2023-02-19T05:34:04.516Z,6.64
2023-02-19T05:37:16.398Z,6.66
2023-02-19T05:40:28.471Z,6.62
2023-02-19T05:43:40.898Z,6.65
2023-02-19T05:46:52.992Z,6.62
2023-02-19T05:50:04.979Z,6.61
2023-02-19T05:53:17.270Z,6.61
2023-02-19T05:56:37.707Z,6.65
2023-02-19T05:59:49.789Z,6.61
2023-02-19T06:03:02.285Z,6.61
2023-02-19T06:06:16.466Z,6.63
2023-02-19T06:09:28.346Z,6.66
2023-02-19T06:12:40.328Z,6.66
2023-02-19T06:15:52.318Z,6.68
2023-02-19T06:19:04.330Z,6.69
2023-02-19T06:22:18.229Z,6.70
2023-02-19T06:25:30.169Z,6.74
2023-02-19T06:28:42.202Z,6.71
2023-02-19T06:31:54.242Z,6.67
2023-02-19T06:35:06.489Z,6.70
2023-02-19T06:38:18.460Z,6.74
2023-02-19T06:41:30.367Z,6.78
2023-02-19T06:44:42.315Z,6.82
2023-02-19T06:47:54.303Z,6.82
2023-02-19T06:51:06.321Z,6.84
2023-02-19T06:54:18.345Z,6.87
2023-02-19T06:57:30.348Z,6.91
2023-02-19T07:00:42.507Z,6.93
2023-02-19T07:03:55.110Z,6.96
2023-02-19T07:07:07.276Z,6.98
2023-02-19T07:10:21.238Z,6.95
2023-02-19T07:13:33.751Z,6.97
2023-02-19T07:16:47.476Z,6.96
2023-02-19T07:19:59.670Z,6.86
2023-02-19T07:23:11.722Z,6.96
2023-02-19T07:26:25.373Z,6.96
2023-02-19T07:29:52.191Z,6.97
2023-02-19T07:33:10.110Z,6.97
2023-02-19T07:36:23.740Z,6.97
2023-02-19T07:39:36.239Z,6.96
2023-02-19T07:42:48.313Z,6.98
2023-02-19T07:46:03.127Z,7.02
2023-02-19T07:49:15.269Z,7.08
2023-02-19T07:52:27.395Z,7.16
2023-02-19T07:55:40.892Z,7.21
2023-02-19T07:58:52.999Z,7.25
2023-02-19T08:02:19.716Z,7.32
2023-02-19T08:05:32.450Z,7.39
2023-02-19T08:08:44.840Z,7.50
2023-02-19T08:12:11.348Z,7.57
2023-02-19T08:15:23.692Z,7.57
2023-02-19T08:18:37.934Z,7.64
2023-02-19T08:21:50.630Z,7.71
2023-02-19T08:25:02.632Z,7.74
2023-02-19T08:28:16.356Z,7.79
2023-02-19T08:31:28.514Z,7.82
2023-02-19T08:34:41.211Z,7.88
2023-02-19T08:37:53.309Z,7.92
2023-02-19T08:41:07.415Z,7.92
2023-02-19T08:44:19.808Z,7.97
2023-02-19T08:47:31.924Z,7.97
2023-02-19T08:50:44.690Z,8.00
2023-02-19T08:53:56.715Z,8.01
2023-02-19T08:57:09.222Z,8.02
2023-02-19T09:00:23.396Z,7.98
2023-02-19T09:03:35.476Z,7.99
2023-02-19T09:06:47.516Z,8.01
2023-02-19T09:09:59.712Z,8.01
2023-02-19T09:13:11.939Z,8.01
2023-02-19T09:16:23.936Z,8.02
2023-02-19T09:19:37.028Z,7.96
2023-02-19T09:22:49.045Z,7.90
2023-02-19T09:26:09.431Z,7.95
2023-02-19T09:29:22.098Z,8.01
2023-02-19T09:32:36.298Z,8.00
2023-02-19T09:35:48.417Z,8.00
2023-02-19T09:39:01.302Z,7.95
2023-02-19T09:42:19.903Z,7.95
2023-02-19T09:45:34.046Z,7.95
2023-02-19T09:48:46.124Z,7.93
2023-02-19T09:52:03.024Z,7.93
2023-02-19T09:55:23.414Z,7.88
2023-02-19T09:58:39.881Z,7.82
2023-02-19T10:01:56.763Z,7.82
2023-02-19T10:05:10.916Z,7.75
2023-02-19T10:08:26.169Z,7.59
2023-02-19T10:11:38.272Z,7.49
2023-02-19T10:14:55.414Z,7.45
2023-02-19T10:18:05.541Z,7.36
2023-02-19T10:21:21.770Z,7.31
2023-02-19T10:24:38.334Z,7.27
2023-02-19T10:27:50.475Z,7.30
2023-02-19T10:31:06.153Z,7.25
2023-02-19T10:34:28.496Z,7.26
2023-02-19T10:37:41.296Z,7.25
2023-02-19T10:40:54.272Z,7.25
2023-02-19T10:44:11.320Z,7.27
2023-02-19T10:47:27.818Z,7.22
2023-02-19T10:50:44.888Z,7.26
2023-02-19T10:54:09.195Z,7.14
2023-02-19T10:57:38.094Z,7.00
2023-02-19T11:00:50.303Z,6.52
2023-02-19T11:04:20.875Z,6.32
2023-02-19T11:07:33.123Z,6.00
2023-02-19T11:10:48.165Z,5.88
2023-02-19T11:14:02.867Z,5.86
2023-02-19T11:17:25.054Z,5.79
2023-02-19T11:20:37.906Z,5.64
2023-02-19T11:23:53.781Z,5.68
2023-02-19T11:27:07.077Z,5.73
2023-02-19T11:30:46.445Z,5.62
2023-02-19T11:34:05.422Z,5.57
2023-02-19T11:37:20.849Z,5.29
2023-02-19T11:40:47.758Z,5.23
2023-02-19T11:44:16.599Z,5.32
2023-02-19T11:47:55.142Z,5.35
2023-02-19T11:51:28.679Z,5.31
2023-02-19T11:54:54.614Z,5.28
2023-02-19T11:58:15.390Z,5.28
2023-02-19T12:01:38.694Z,5.27
2023-02-19T12:05:33.940Z,5.41
2023-02-19T12:09:26.659Z,5.41
2023-02-19T12:12:51.541Z,5.42
2023-02-19T12:16:23.883Z,5.46
2023-02-19T12:20:02.446Z,5.68
2023-02-19T12:23:37.178Z,5.85
2023-02-19T12:26:57.913Z,5.81
2023-02-19T12:30:42.891Z,5.83
2023-02-19T12:34:19.661Z,5.84
2023-02-19T12:37:42.654Z,5.69
2023-02-19T12:41:04.928Z,5.73
2023-02-19T12:44:22.892Z,5.78
2023-02-19T12:47:39.725Z,5.62
2023-02-19T12:50:56.534Z,5.66
2023-02-19T12:54:15.341Z,5.83
2023-02-19T12:57:31.573Z,5.75
2023-02-19T13:00:50.460Z,5.67
2023-02-19T13:04:18.757Z,5.69
2023-02-19T13:07:37.652Z,5.56
2023-02-19T13:10:54.510Z,5.71
2023-02-19T13:14:10.521Z,5.79
2023-02-19T13:17:31.274Z,5.84
2023-02-19T13:20:48.772Z,5.90
2023-02-19T13:24:06.301Z,5.99
2023-02-19T13:27:44.710Z,5.97
2023-02-19T13:31:16.286Z,5.79
2023-02-19T13:34:40.105Z,5.73
2023-02-19T13:37:54.061Z,5.69
2023-02-19T13:41:06.756Z,5.75
2023-02-19T13:44:27.631Z,5.64
2023-02-19T13:48:09.865Z,5.57
2023-02-19T13:51:53.845Z,5.51
2023-02-19T13:55:49.809Z,5.56
2023-02-19T13:59:06.880Z,5.54
2023-02-19T14:02:21.194Z,5.57
2023-02-19T14:06:07.148Z,5.53
2023-02-19T14:09:50.730Z,5.46
2023-02-19T14:13:03.264Z,5.31
2023-02-19T14:16:37.793Z,5.31
2023-02-19T14:19:59.907Z,5.20
2023-02-19T14:23:24.776Z,5.26
2023-02-19T14:26:39.937Z,5.01
2023-02-19T14:29:52.759Z,4.99
2023-02-19T14:33:11.028Z,4.93
2023-02-19T14:36:45.298Z,4.96
2023-02-19T14:39:58.022Z,5.05
2023-02-19T14:43:10.788Z,4.97
2023-02-19T14:46:31.818Z,4.97
2023-02-19T14:49:48.494Z,4.90
2023-02-19T14:53:04.444Z,4.93
2023-02-19T14:56:26.456Z,4.98
2023-02-19T14:59:38.827Z,5.01
2023-02-19T15:02:51.100Z,5.06
2023-02-19T15:06:08.140Z,5.12
2023-02-19T15:09:22.657Z,5.03
2023-02-19T15:12:39.437Z,4.97
2023-02-19T15:15:53.663Z,4.81
2023-02-19T15:19:08.826Z,4.70
2023-02-19T15:22:25.330Z,4.56
2023-02-19T15:25:41.419Z,4.58
2023-02-19T15:29:03.224Z,4.47
2023-02-19T15:32:26.394Z,4.39
2023-02-19T15:35:38.909Z,4.32
2023-02-19T15:38:51.821Z,4.35
2023-02-19T15:42:08.389Z,4.34
2023-02-19T15:45:27.654Z,4.34
2023-02-19T15:48:45.282Z,4.26
2023-02-19T15:52:02.181Z,4.27
2023-02-19T15:55:38.615Z,4.30
2023-02-19T15:58:54.820Z,4.31
2023-02-19T16:02:07.683Z,4.33
2023-02-19T16:05:30.264Z,4.29
2023-02-19T16:08:44.514Z,4.29
2023-02-19T16:11:59.499Z,4.32
2023-02-19T16:15:24.280Z,4.33
2023-02-19T16:18:36.998Z,4.27
2023-02-19T16:21:51.163Z,4.22
2023-02-19T16:25:06.740Z,4.28
2023-02-19T16:28:25.227Z,4.26
2023-02-19T16:31:37.625Z,4.27
2023-02-19T16:34:51.449Z,4.24
2023-02-19T16:38:07.386Z,4.15
2023-02-19T16:41:22.828Z,4.13
2023-02-19T16:44:42.847Z,4.15
2023-02-19T16:47:55.058Z,4.13
2023-02-19T16:51:07.272Z,4.06
2023-02-19T16:54:20.882Z,4.06
2023-02-19T16:57:33.175Z,4.02
2023-02-19T17:00:46.120Z,4.02
2023-02-19T17:04:02.426Z,4.00
2023-02-19T17:07:17.309Z,4.00
2023-02-19T17:10:32.239Z,4.00
2023-02-19T17:13:45.859Z,4.00
2023-02-19T17:16:59.324Z,3.95
2023-02-19T17:20:27.593Z,3.92
2023-02-19T17:23:37.922Z,3.98
2023-02-19T17:26:49.883Z,3.98
2023-02-19T17:30:10.660Z,4.00
2023-02-19T17:33:22.764Z,4.02
2023-02-19T17:36:38.110Z,3.94
2023-02-19T17:39:50.310Z,3.98
2023-02-19T17:43:02.722Z,3.95
2023-02-19T17:46:19.674Z,3.97
2023-02-19T17:53:30.928Z,4.00
2023-02-19T17:56:45.720Z,3.99
2023-02-19T18:00:00.360Z,4.01
2023-02-19T18:03:12.687Z,3.98
2023-02-19T18:06:25.418Z,3.97
2023-02-19T18:09:37.518Z,3.95
2023-02-19T18:12:49.909Z,3.91
2023-02-19T18:16:02.038Z,3.87
2023-02-19T18:19:15.169Z,3.84
2023-02-19T18:22:28.144Z,3.80
2023-02-19T18:25:40.556Z,3.78
2023-02-19T18:28:52.541Z,3.78
2023-02-19T18:32:04.897Z,3.74
2023-02-19T18:35:17.763Z,3.73
2023-02-19T18:38:29.827Z,3.70
2023-02-19T18:41:41.847Z,3.70
2023-02-19T18:44:57.245Z,3.66
2023-02-19T18:48:10.284Z,3.60
2023-02-19T18:51:23.460Z,3.50
2023-02-19T18:54:37.011Z,3.47
2023-02-19T18:57:49.276Z,3.45
2023-02-19T19:01:01.452Z,3.46
2023-02-19T19:04:14.207Z,3.43
2023-02-19T19:07:27.022Z,3.42
2023-02-19T19:10:39.053Z,3.35
2023-02-19T19:13:53.077Z,3.32
2023-02-19T19:17:05.686Z,3.30
2023-02-19T19:20:19.051Z,3.28
2023-02-19T19:23:31.263Z,3.24
2023-02-19T19:26:49.223Z,3.20
2023-02-19T19:30:01.912Z,3.18
2023-02-19T19:33:14.192Z,3.16
2023-02-19T19:36:29.052Z,3.12
2023-02-19T19:39:41.507Z,3.08
2023-02-19T19:42:56.782Z,3.09
2023-02-19T19:46:14.221Z,3.06
2023-02-19T19:49:28.458Z,3.03
2023-02-19T19:52:40.837Z,2.98
2023-02-19T19:55:53.674Z,2.95
2023-02-19T19:59:06.477Z,2.84
2023-02-19T20:02:19.715Z,2.87
2023-02-19T20:05:32.251Z,2.86
2023-02-19T20:08:44.582Z,2.86
2023-02-19T20:11:58.514Z,2.89
2023-02-19T20:15:12.866Z,2.95
2023-02-19T20:18:26.790Z,2.96
2023-02-19T20:21:39.809Z,2.94
2023-02-19T20:24:55.408Z,2.93
2023-02-19T20:28:07.884Z,2.93
2023-02-19T20:31:20.220Z,2.88
2023-02-19T20:34:32.662Z,2.85
2023-02-19T20:37:47.984Z,2.80
2023-02-19T20:41:00.206Z,2.76
2023-02-19T20:44:12.806Z,2.73
2023-02-19T20:47:25.101Z,2.70
2023-02-19T20:50:37.649Z,2.63
2023-02-19T20:53:50.472Z,2.58
2023-02-19T20:57:05.448Z,2.55
2023-02-19T21:00:20.269Z,2.52
2023-02-19T21:03:32.595Z,2.52
2023-02-19T21:06:44.948Z,2.49
2023-02-19T21:09:57.371Z,2.45
2023-02-19T21:13:09.520Z,2.41
2023-02-19T21:16:21.996Z,2.39
2023-02-19T21:19:34.023Z,2.37
2023-02-19T21:22:46.030Z,2.34
2023-02-19T21:25:58.138Z,2.31
2023-02-19T21:29:11.923Z,2.33
2023-02-19T21:32:24.083Z,2.29
2023-02-19T21:35:36.714Z,2.27
2023-02-19T21:38:48.826Z,2.22
2023-02-19T21:42:02.552Z,2.21
2023-02-19T21:45:15.815Z,2.17
2023-02-19T21:48:28.295Z,2.18
2023-02-19T21:51:42.651Z,2.15
2023-02-19T21:54:54.985Z,2.15
2023-02-19T21:58:07.117Z,2.11
2023-02-19T22:01:19.656Z,2.09
2023-02-19T22:04:31.714Z,2.04
2023-02-19T22:07:44.474Z,2.00
2023-02-19T22:10:56.639Z,1.98
2023-02-19T22:14:09.979Z,1.93
2023-02-19T22:17:22.074Z,1.92
2023-02-19T22:20:34.846Z,1.89
2023-02-19T22:23:49.669Z,1.87
2023-02-19T22:27:04.974Z,1.85
2023-02-19T22:30:19.420Z,1.81
2023-02-19T22:33:31.359Z,1.79
2023-02-19T22:36:43.823Z,1.76
2023-02-19T22:39:55.932Z,1.77
2023-02-19T22:43:07.991Z,1.74
2023-02-19T22:46:24.323Z,1.77
2023-02-19T22:49:36.322Z,1.75
2023-02-19T22:52:48.595Z,1.77
2023-02-19T22:56:00.595Z,1.77
2023-02-19T22:59:12.550Z,1.78
2023-02-19T23:02:24.484Z,1.78
2023-02-19T23:05:36.462Z,1.76
2023-02-19T23:08:48.764Z,1.76
2023-02-19T23:12:07.374Z,1.76
2023-02-19T23:15:19.817Z,1.79
2023-02-19T23:18:31.853Z,1.81
2023-02-19T23:21:44.238Z,1.79
2023-02-19T23:24:56.234Z,1.83
2023-02-19T23:28:08.639Z,1.84
2023-02-19T23:31:21.392Z,1.88
2023-02-19T23:34:33.679Z,1.91
2023-02-19T23:37:45.876Z,1.94
2023-02-19T23:40:57.881Z,1.95
2023-02-19T23:44:10.294Z,1.96
2023-02-19T23:47:22.620Z,1.98
2023-02-19T23:50:34.622Z,1.98
2023-02-19T23:53:46.599Z,1.99
2023-02-19T23:56:59.317Z,1.97
